sensor_id;sensor_type;location;lat;lon;timestamp;P1;durP1;ratioP1;P2;durP2;ratioP2
63975;SDS011;50167;47.958;21.780;2023-10-13T00:01:22;20.67;;;7.93;;
63975;SDS011;50167;47.958;21.780;2023-10-13T00:03:48;16.33;;;7.37;;
63975;SDS011;50167;47.958;21.780;2023-10-13T00:06:19;15.93;;;6.87;;
63975;SDS011;50167;47.958;21.780;2023-10-13T00:08:45;23.00;;;7.80;;
63975;SDS011;50167;47.958;21.780;2023-10-13T00:11:12;14.27;;;6.60;;
63975;SDS011;50167;47.958;21.780;2023-10-13T00:13:39;19.20;;;8.67;;
63975;SDS011;50167;47.958;21.780;2023-10-13T00:16:10;17.77;;;8.53;;
63975;SDS011;50167;47.958;21.780;2023-10-13T00:18:38;20.73;;;8.40;;
63975;SDS011;50167;47.958;21.780;2023-10-13T00:21:08;20.03;;;7.63;;
63975;SDS011;50167;47.958;21.780;2023-10-13T00:23:45;15.30;;;8.10;;
63975;SDS011;50167;47.958;21.780;2023-10-13T00:26:19;18.43;;;7.87;;
63975;SDS011;50167;47.958;21.780;2023-10-13T00:28:54;19.40;;;7.60;;
63975;SDS011;50167;47.958;21.780;2023-10-13T00:31:28;17.40;;;8.23;;
63975;SDS011;50167;47.958;21.780;2023-10-13T00:33:56;16.77;;;7.80;;
63975;SDS011;50167;47.958;21.780;2023-10-13T00:36:24;22.87;;;8.73;;
63975;SDS011;50167;47.958;21.780;2023-10-13T00:38:50;20.40;;;9.53;;
63975;SDS011;50167;47.958;21.780;2023-10-13T00:41:17;24.07;;;8.03;;
63975;SDS011;50167;47.958;21.780;2023-10-13T00:43:46;24.30;;;7.93;;
63975;SDS011;50167;47.958;21.780;2023-10-13T00:46:34;19.27;;;7.00;;
63975;SDS011;50167;47.958;21.780;2023-10-13T00:49:04;26.23;;;7.03;;
63975;SDS011;50167;47.958;21.780;2023-10-13T00:51:33;20.23;;;7.47;;
63975;SDS011;50167;47.958;21.780;2023-10-13T00:54:02;22.27;;;8.30;;
63975;SDS011;50167;47.958;21.780;2023-10-13T00:56:32;21.77;;;7.60;;
63975;SDS011;50167;47.958;21.780;2023-10-13T00:58:59;23.87;;;10.10;;
63975;SDS011;50167;47.958;21.780;2023-10-13T01:01:32;20.13;;;8.17;;
63975;SDS011;50167;47.958;21.780;2023-10-13T01:03:57;17.92;;;7.22;;
63975;SDS011;50167;47.958;21.780;2023-10-13T01:06:25;21.80;;;8.13;;
63975;SDS011;50167;47.958;21.780;2023-10-13T01:08:57;15.07;;;8.10;;
63975;SDS011;50167;47.958;21.780;2023-10-13T01:11:44;18.90;;;8.77;;
63975;SDS011;50167;47.958;21.780;2023-10-13T01:14:19;17.07;;;8.10;;
63975;SDS011;50167;47.958;21.780;2023-10-13T01:16:49;17.40;;;7.67;;
63975;SDS011;50167;47.958;21.780;2023-10-13T01:19:17;18.77;;;8.93;;
63975;SDS011;50167;47.958;21.780;2023-10-13T01:21:52;31.37;;;8.80;;
63975;SDS011;50167;47.958;21.780;2023-10-13T01:24:29;32.40;;;9.70;;
63975;SDS011;50167;47.958;21.780;2023-10-13T01:27:02;16.07;;;7.53;;
63975;SDS011;50167;47.958;21.780;2023-10-13T01:29:46;21.30;;;7.57;;
63975;SDS011;50167;47.958;21.780;2023-10-13T01:32:14;27.10;;;10.07;;
63975;SDS011;50167;47.958;21.780;2023-10-13T01:34:43;22.30;;;8.48;;
63975;SDS011;50167;47.958;21.780;2023-10-13T01:37:14;18.80;;;8.83;;
63975;SDS011;50167;47.958;21.780;2023-10-13T01:39:44;23.05;;;9.40;;
63975;SDS011;50167;47.958;21.780;2023-10-13T01:42:15;23.50;;;10.55;;
63975;SDS011;50167;47.958;21.780;2023-10-13T01:44:46;29.37;;;9.43;;
63975;SDS011;50167;47.958;21.780;2023-10-13T01:47:13;21.20;;;8.93;;
63975;SDS011;50167;47.958;21.780;2023-10-13T01:49:41;22.33;;;8.90;;
63975;SDS011;50167;47.958;21.780;2023-10-13T01:52:10;15.30;;;7.83;;
63975;SDS011;50167;47.958;21.780;2023-10-13T01:54:41;21.73;;;8.43;;
63975;SDS011;50167;47.958;21.780;2023-10-13T01:57:09;16.47;;;8.13;;
63975;SDS011;50167;47.958;21.780;2023-10-13T01:59:49;18.07;;;9.63;;
63975;SDS011;50167;47.958;21.780;2023-10-13T02:02:16;23.57;;;10.43;;
63975;SDS011;50167;47.958;21.780;2023-10-13T02:04:44;22.50;;;9.27;;
63975;SDS011;50167;47.958;21.780;2023-10-13T02:07:21;20.03;;;9.47;;
63975;SDS011;50167;47.958;21.780;2023-10-13T02:09:50;15.17;;;7.47;;
63975;SDS011;50167;47.958;21.780;2023-10-13T02:12:18;24.70;;;10.47;;
63975;SDS011;50167;47.958;21.780;2023-10-13T02:14:44;25.80;;;8.67;;
63975;SDS011;50167;47.958;21.780;2023-10-13T02:17:10;21.37;;;8.87;;
63975;SDS011;50167;47.958;21.780;2023-10-13T02:19:41;17.73;;;9.30;;
63975;SDS011;50167;47.958;21.780;2023-10-13T02:22:12;16.87;;;9.33;;
63975;SDS011;50167;47.958;21.780;2023-10-13T02:24:53;22.83;;;8.37;;
63975;SDS011;50167;47.958;21.780;2023-10-13T02:27:21;14.63;;;8.33;;
63975;SDS011;50167;47.958;21.780;2023-10-13T02:29:51;16.73;;;10.23;;
63975;SDS011;50167;47.958;21.780;2023-10-13T02:32:19;16.77;;;8.67;;
63975;SDS011;50167;47.958;21.780;2023-10-13T02:34:45;19.67;;;9.93;;
63975;SDS011;50167;47.958;21.780;2023-10-13T02:37:11;20.43;;;8.90;;
63975;SDS011;50167;47.958;21.780;2023-10-13T02:39:39;19.47;;;9.03;;
63975;SDS011;50167;47.958;21.780;2023-10-13T02:42:09;16.07;;;9.10;;
63975;SDS011;50167;47.958;21.780;2023-10-13T02:44:37;16.27;;;8.33;;
63975;SDS011;50167;47.958;21.780;2023-10-13T02:47:05;18.23;;;8.87;;
63975;SDS011;50167;47.958;21.780;2023-10-13T02:49:33;18.80;;;9.03;;
63975;SDS011;50167;47.958;21.780;2023-10-13T02:52:02;20.93;;;10.23;;
63975;SDS011;50167;47.958;21.780;2023-10-13T02:54:30;15.17;;;8.13;;
63975;SDS011;50167;47.958;21.780;2023-10-13T02:56:58;20.60;;;8.60;;
63975;SDS011;50167;47.958;21.780;2023-10-13T02:59:27;21.07;;;9.00;;
63975;SDS011;50167;47.958;21.780;2023-10-13T03:02:02;21.77;;;8.70;;
63975;SDS011;50167;47.958;21.780;2023-10-13T03:04:48;21.63;;;9.10;;
63975;SDS011;50167;47.958;21.780;2023-10-13T03:07:16;20.73;;;9.70;;
63975;SDS011;50167;47.958;21.780;2023-10-13T03:09:52;24.13;;;10.23;;
63975;SDS011;50167;47.958;21.780;2023-10-13T03:12:18;22.30;;;10.30;;
63975;SDS011;50167;47.958;21.780;2023-10-13T03:14:45;27.80;;;10.07;;
63975;SDS011;50167;47.958;21.780;2023-10-13T03:17:14;28.07;;;12.37;;
63975;SDS011;50167;47.958;21.780;2023-10-13T03:19:43;15.83;;;10.93;;
63975;SDS011;50167;47.958;21.780;2023-10-13T03:22:12;22.80;;;11.35;;
63975;SDS011;50167;47.958;21.780;2023-10-13T03:24:40;17.50;;;8.90;;
63975;SDS011;50167;47.958;21.780;2023-10-13T03:27:13;20.10;;;9.13;;
63975;SDS011;50167;47.958;21.780;2023-10-13T03:29:47;24.40;;;10.97;;
63975;SDS011;50167;47.958;21.780;2023-10-13T03:32:14;15.10;;;9.43;;
63975;SDS011;50167;47.958;21.780;2023-10-13T03:34:42;17.70;;;9.13;;
63975;SDS011;50167;47.958;21.780;2023-10-13T03:37:14;22.07;;;9.80;;
63975;SDS011;50167;47.958;21.780;2023-10-13T03:40:01;14.00;;;9.47;;
63975;SDS011;50167;47.958;21.780;2023-10-13T03:44:57;17.07;;;9.87;;
63975;SDS011;50167;47.958;21.780;2023-10-13T03:47:23;18.57;;;11.10;;
63975;SDS011;50167;47.958;21.780;2023-10-13T03:49:55;16.93;;;11.07;;
63975;SDS011;50167;47.958;21.780;2023-10-13T03:52:40;21.30;;;10.03;;
63975;SDS011;50167;47.958;21.780;2023-10-13T03:55:06;23.10;;;8.83;;
63975;SDS011;50167;47.958;21.780;2023-10-13T03:57:35;17.73;;;9.57;;
63975;SDS011;50167;47.958;21.780;2023-10-13T04:00:04;18.90;;;10.80;;
63975;SDS011;50167;47.958;21.780;2023-10-13T04:02:37;14.67;;;10.20;;
63975;SDS011;50167;47.958;21.780;2023-10-13T04:05:03;22.13;;;10.63;;
63975;SDS011;50167;47.958;21.780;2023-10-13T04:07:35;20.50;;;10.30;;
63975;SDS011;50167;47.958;21.780;2023-10-13T04:10:09;23.93;;;11.07;;
63975;SDS011;50167;47.958;21.780;2023-10-13T04:12:53;19.43;;;11.30;;
63975;SDS011;50167;47.958;21.780;2023-10-13T04:15:39;19.53;;;10.83;;
63975;SDS011;50167;47.958;21.780;2023-10-13T04:18:09;16.00;;;10.55;;
63975;SDS011;50167;47.958;21.780;2023-10-13T04:20:52;23.37;;;10.93;;
63975;SDS011;50167;47.958;21.780;2023-10-13T04:23:20;18.67;;;10.67;;
63975;SDS011;50167;47.958;21.780;2023-10-13T04:25:48;19.57;;;9.73;;
63975;SDS011;50167;47.958;21.780;2023-10-13T04:28:14;25.97;;;9.23;;
63975;SDS011;50167;47.958;21.780;2023-10-13T04:30:43;18.27;;;9.13;;
63975;SDS011;50167;47.958;21.780;2023-10-13T04:33:22;16.07;;;11.30;;
63975;SDS011;50167;47.958;21.780;2023-10-13T04:38:51;18.23;;;9.97;;
63975;SDS011;50167;47.958;21.780;2023-10-13T04:41:25;16.03;;;9.87;;
63975;SDS011;50167;47.958;21.780;2023-10-13T04:44:08;13.72;;;9.40;;
63975;SDS011;50167;47.958;21.780;2023-10-13T04:46:58;20.30;;;10.63;;
63975;SDS011;50167;47.958;21.780;2023-10-13T04:49:30;18.00;;;9.60;;
63975;SDS011;50167;47.958;21.780;2023-10-13T04:52:08;15.90;;;8.63;;
63975;SDS011;50167;47.958;21.780;2023-10-13T04:54:36;21.07;;;11.40;;
63975;SDS011;50167;47.958;21.780;2023-10-13T04:57:17;19.30;;;9.90;;
63975;SDS011;50167;47.958;21.780;2023-10-13T04:59:48;22.37;;;11.40;;
63975;SDS011;50167;47.958;21.780;2023-10-13T05:02:40;22.00;;;11.00;;
63975;SDS011;50167;47.958;21.780;2023-10-13T05:05:22;14.00;;;9.87;;
63975;SDS011;50167;47.958;21.780;2023-10-13T05:07:51;18.10;;;10.50;;
63975;SDS011;50167;47.958;21.780;2023-10-13T05:10:23;13.33;;;10.20;;
63975;SDS011;50167;47.958;21.780;2023-10-13T05:13:08;23.20;;;11.63;;
63975;SDS011;50167;47.958;21.780;2023-10-13T05:15:52;19.57;;;10.80;;
63975;SDS011;50167;47.958;21.780;2023-10-13T05:18:38;17.13;;;11.60;;
63975;SDS011;50167;47.958;21.780;2023-10-13T05:21:23;16.23;;;10.33;;
63975;SDS011;50167;47.958;21.780;2023-10-13T05:24:08;16.03;;;9.80;;
63975;SDS011;50167;47.958;21.780;2023-10-13T05:26:53;17.63;;;10.27;;
63975;SDS011;50167;47.958;21.780;2023-10-13T05:29:42;16.33;;;10.70;;
63975;SDS011;50167;47.958;21.780;2023-10-13T05:32:29;25.17;;;11.17;;
63975;SDS011;50167;47.958;21.780;2023-10-13T05:35:14;14.67;;;9.83;;
63975;SDS011;50167;47.958;21.780;2023-10-13T05:38:00;28.37;;;11.53;;
63975;SDS011;50167;47.958;21.780;2023-10-13T05:41:18;19.10;;;10.67;;
63975;SDS011;50167;47.958;21.780;2023-10-13T05:43:42;16.23;;;10.30;;
63975;SDS011;50167;47.958;21.780;2023-10-13T05:46:27;21.27;;;11.10;;
63975;SDS011;50167;47.958;21.780;2023-10-13T05:49:03;17.57;;;10.47;;
63975;SDS011;50167;47.958;21.780;2023-10-13T05:51:31;21.47;;;10.53;;
63975;SDS011;50167;47.958;21.780;2023-10-13T05:53:59;20.07;;;10.83;;
63975;SDS011;50167;47.958;21.780;2023-10-13T05:56:44;15.97;;;10.67;;
63975;SDS011;50167;47.958;21.780;2023-10-13T05:59:36;17.53;;;10.03;;
63975;SDS011;50167;47.958;21.780;2023-10-13T06:02:23;22.47;;;11.63;;
63975;SDS011;50167;47.958;21.780;2023-10-13T06:05:09;23.60;;;11.47;;
63975;SDS011;50167;47.958;21.780;2023-10-13T06:07:56;20.20;;;11.37;;
63975;SDS011;50167;47.958;21.780;2023-10-13T06:10:43;19.40;;;10.90;;
63975;SDS011;50167;47.958;21.780;2023-10-13T06:13:28;17.03;;;11.67;;
63975;SDS011;50167;47.958;21.780;2023-10-13T06:16:16;18.67;;;10.83;;
63975;SDS011;50167;47.958;21.780;2023-10-13T06:19:02;19.93;;;11.83;;
63975;SDS011;50167;47.958;21.780;2023-10-13T06:21:47;18.30;;;10.60;;
63975;SDS011;50167;47.958;21.780;2023-10-13T06:24:31;18.13;;;9.87;;
63975;SDS011;50167;47.958;21.780;2023-10-13T06:27:16;23.00;;;10.77;;
63975;SDS011;50167;47.958;21.780;2023-10-13T06:30:01;18.03;;;11.07;;
63975;SDS011;50167;47.958;21.780;2023-10-13T06:32:30;20.43;;;9.93;;
63975;SDS011;50167;47.958;21.780;2023-10-13T06:34:57;18.83;;;11.50;;
63975;SDS011;50167;47.958;21.780;2023-10-13T06:37:24;21.90;;;10.27;;
63975;SDS011;50167;47.958;21.780;2023-10-13T06:39:59;19.30;;;10.90;;
63975;SDS011;50167;47.958;21.780;2023-10-13T06:42:35;22.43;;;11.33;;
63975;SDS011;50167;47.958;21.780;2023-10-13T06:45:03;23.00;;;10.60;;
63975;SDS011;50167;47.958;21.780;2023-10-13T06:47:32;25.53;;;11.57;;
63975;SDS011;50167;47.958;21.780;2023-10-13T06:49:58;26.63;;;13.30;;
63975;SDS011;50167;47.958;21.780;2023-10-13T06:52:26;26.60;;;12.10;;
63975;SDS011;50167;47.958;21.780;2023-10-13T06:57:21;24.93;;;10.27;;
63975;SDS011;50167;47.958;21.780;2023-10-13T06:59:48;18.17;;;10.40;;
63975;SDS011;50167;47.958;21.780;2023-10-13T07:02:15;17.97;;;10.03;;
63975;SDS011;50167;47.958;21.780;2023-10-13T07:04:43;21.80;;;10.40;;
63975;SDS011;50167;47.958;21.780;2023-10-13T07:07:09;20.47;;;10.07;;
63975;SDS011;50167;47.958;21.780;2023-10-13T07:09:38;25.23;;;10.10;;
63975;SDS011;50167;47.958;21.780;2023-10-13T07:12:05;28.97;;;11.30;;
63975;SDS011;50167;47.958;21.780;2023-10-13T07:14:47;20.53;;;11.57;;
63975;SDS011;50167;47.958;21.780;2023-10-13T07:17:21;29.43;;;12.17;;
63975;SDS011;50167;47.958;21.780;2023-10-13T07:19:53;22.43;;;10.73;;
63975;SDS011;50167;47.958;21.780;2023-10-13T07:22:22;25.30;;;10.17;;
63975;SDS011;50167;47.958;21.780;2023-10-13T07:27:28;28.60;;;10.93;;
63975;SDS011;50167;47.958;21.780;2023-10-13T07:29:55;20.33;;;11.50;;
63975;SDS011;50167;47.958;21.780;2023-10-13T07:32:23;21.10;;;10.27;;
63975;SDS011;50167;47.958;21.780;2023-10-13T07:34:54;19.80;;;11.03;;
63975;SDS011;50167;47.958;21.780;2023-10-13T07:37:25;26.35;;;12.25;;
63975;SDS011;50167;47.958;21.780;2023-10-13T07:39:54;21.63;;;12.03;;
63975;SDS011;50167;47.958;21.780;2023-10-13T07:42:25;27.70;;;11.88;;
63975;SDS011;50167;47.958;21.780;2023-10-13T07:44:53;29.53;;;13.53;;
63975;SDS011;50167;47.958;21.780;2023-10-13T07:47:21;28.03;;;12.37;;
63975;SDS011;50167;47.958;21.780;2023-10-13T07:49:49;22.67;;;10.87;;
63975;SDS011;50167;47.958;21.780;2023-10-13T07:52:16;22.93;;;11.57;;
63975;SDS011;50167;47.958;21.780;2023-10-13T07:54:48;18.40;;;11.63;;
63975;SDS011;50167;47.958;21.780;2023-10-13T07:57:29;30.13;;;14.30;;
63975;SDS011;50167;47.958;21.780;2023-10-13T07:59:55;31.67;;;12.63;;
63975;SDS011;50167;47.958;21.780;2023-10-13T08:02:24;23.45;;;12.78;;
63975;SDS011;50167;47.958;21.780;2023-10-13T08:05:10;21.35;;;11.75;;
63975;SDS011;50167;47.958;21.780;2023-10-13T08:07:38;28.83;;;15.58;;
63975;SDS011;50167;47.958;21.780;2023-10-13T08:13:46;22.77;;;13.13;;
63975;SDS011;50167;47.958;21.780;2023-10-13T08:16:13;22.45;;;12.45;;
63975;SDS011;50167;47.958;21.780;2023-10-13T08:18:41;30.02;;;14.93;;
63975;SDS011;50167;47.958;21.780;2023-10-13T08:21:08;36.93;;;17.15;;
63975;SDS011;50167;47.958;21.780;2023-10-13T08:23:37;35.25;;;17.20;;
63975;SDS011;50167;47.958;21.780;2023-10-13T08:26:19;31.93;;;15.10;;
63975;SDS011;50167;47.958;21.780;2023-10-13T08:29:06;23.45;;;13.90;;
63975;SDS011;50167;47.958;21.780;2023-10-13T08:31:48;30.20;;;13.90;;
63975;SDS011;50167;47.958;21.780;2023-10-13T08:34:35;24.30;;;12.00;;
63975;SDS011;50167;47.958;21.780;2023-10-13T08:37:07;21.15;;;13.10;;
63975;SDS011;50167;47.958;21.780;2023-10-13T08:39:35;24.27;;;13.08;;
63975;SDS011;50167;47.958;21.780;2023-10-13T08:42:06;30.65;;;12.68;;
63975;SDS011;50167;47.958;21.780;2023-10-13T08:44:43;21.75;;;11.40;;
63975;SDS011;50167;47.958;21.780;2023-10-13T08:47:15;29.00;;;11.63;;
63975;SDS011;50167;47.958;21.780;2023-10-13T08:49:44;26.85;;;12.18;;
63975;SDS011;50167;47.958;21.780;2023-10-13T08:52:14;25.52;;;11.50;;
63975;SDS011;50167;47.958;21.780;2023-10-13T08:54:55;18.25;;;11.50;;
63975;SDS011;50167;47.958;21.780;2023-10-13T08:57:30;28.38;;;9.80;;
63975;SDS011;50167;47.958;21.780;2023-10-13T09:00:00;21.05;;;9.75;;
63975;SDS011;50167;47.958;21.780;2023-10-13T09:02:28;23.45;;;9.65;;
63975;SDS011;50167;47.958;21.780;2023-10-13T09:04:56;21.93;;;9.23;;
63975;SDS011;50167;47.958;21.780;2023-10-13T09:07:27;21.15;;;9.55;;
63975;SDS011;50167;47.958;21.780;2023-10-13T09:09:54;33.25;;;10.90;;
63975;SDS011;50167;47.958;21.780;2023-10-13T09:12:23;23.73;;;9.90;;
63975;SDS011;50167;47.958;21.780;2023-10-13T09:14:59;20.02;;;8.23;;
63975;SDS011;50167;47.958;21.780;2023-10-13T09:17:32;22.82;;;9.33;;
63975;SDS011;50167;47.958;21.780;2023-10-13T09:20:32;18.60;;;9.38;;
63975;SDS011;50167;47.958;21.780;2023-10-13T09:22:58;12.63;;;7.40;;
63975;SDS011;50167;47.958;21.780;2023-10-13T09:25:30;19.85;;;8.83;;
63975;SDS011;50167;47.958;21.780;2023-10-13T09:28:10;22.80;;;8.83;;
63975;SDS011;50167;47.958;21.780;2023-10-13T09:30:44;20.00;;;9.48;;
63975;SDS011;50167;47.958;21.780;2023-10-13T09:33:13;23.40;;;10.65;;
63975;SDS011;50167;47.958;21.780;2023-10-13T09:35:42;23.98;;;9.10;;
63975;SDS011;50167;47.958;21.780;2023-10-13T09:41:42;16.77;;;8.83;;
63975;SDS011;50167;47.958;21.780;2023-10-13T09:54:08;13.40;;;7.22;;
63975;SDS011;50167;47.958;21.780;2023-10-13T09:56:57;23.42;;;7.95;;
63975;SDS011;50167;47.958;21.780;2023-10-13T09:59:44;14.50;;;7.92;;
63975;SDS011;50167;47.958;21.780;2023-10-13T10:06:20;28.57;;;8.68;;
63975;SDS011;50167;47.958;21.780;2023-10-13T10:09:04;22.13;;;7.20;;
63975;SDS011;50167;47.958;21.780;2023-10-13T10:17:10;21.23;;;7.75;;
63975;SDS011;50167;47.958;21.780;2023-10-13T10:19:51;15.83;;;7.55;;
63975;SDS011;50167;47.958;21.780;2023-10-13T10:22:30;20.20;;;7.20;;
63975;SDS011;50167;47.958;21.780;2023-10-13T10:25:03;15.95;;;6.33;;
63975;SDS011;50167;47.958;21.780;2023-10-13T10:27:31;17.17;;;6.62;;
63975;SDS011;50167;47.958;21.780;2023-10-13T10:30:00;16.25;;;5.85;;
63975;SDS011;50167;47.958;21.780;2023-10-13T10:32:35;12.80;;;6.67;;
63975;SDS011;50167;47.958;21.780;2023-10-13T10:35:10;16.75;;;6.12;;
63975;SDS011;50167;47.958;21.780;2023-10-13T10:37:43;14.40;;;5.78;;
63975;SDS011;50167;47.958;21.780;2023-10-13T10:40:16;13.88;;;5.80;;
63975;SDS011;50167;47.958;21.780;2023-10-13T10:42:51;22.37;;;6.70;;
63975;SDS011;50167;47.958;21.780;2023-10-13T10:45:18;13.10;;;5.70;;
63975;SDS011;50167;47.958;21.780;2023-10-13T10:47:49;15.20;;;5.60;;
63975;SDS011;50167;47.958;21.780;2023-10-13T10:50:25;19.75;;;8.38;;
63975;SDS011;50167;47.958;21.780;2023-10-13T10:57:25;19.45;;;8.48;;
63975;SDS011;50167;47.958;21.780;2023-10-13T10:59:54;19.70;;;7.35;;
63975;SDS011;50167;47.958;21.780;2023-10-13T11:02:30;18.98;;;8.03;;
63975;SDS011;50167;47.958;21.780;2023-10-13T11:04:57;20.48;;;7.62;;
63975;SDS011;50167;47.958;21.780;2023-10-13T11:07:24;26.52;;;8.50;;
63975;SDS011;50167;47.958;21.780;2023-10-13T11:09:51;25.70;;;8.33;;
63975;SDS011;50167;47.958;21.780;2023-10-13T11:12:25;17.98;;;7.58;;
63975;SDS011;50167;47.958;21.780;2023-10-13T11:15:07;21.23;;;6.67;;
63975;SDS011;50167;47.958;21.780;2023-10-13T11:17:51;20.13;;;6.33;;
63975;SDS011;50167;47.958;21.780;2023-10-13T11:20:22;20.50;;;6.17;;
63975;SDS011;50167;47.958;21.780;2023-10-13T11:22:51;21.20;;;7.08;;
63975;SDS011;50167;47.958;21.780;2023-10-13T11:25:28;22.77;;;7.85;;
63975;SDS011;50167;47.958;21.780;2023-10-13T11:27:58;22.87;;;6.85;;
63975;SDS011;50167;47.958;21.780;2023-10-13T11:30:44;23.62;;;8.38;;
63975;SDS011;50167;47.958;21.780;2023-10-13T11:33:17;21.93;;;8.90;;
63975;SDS011;50167;47.958;21.780;2023-10-13T11:35:46;19.30;;;7.70;;
63975;SDS011;50167;47.958;21.780;2023-10-13T11:38:18;29.77;;;6.90;;
63975;SDS011;50167;47.958;21.780;2023-10-13T11:40:58;16.90;;;6.60;;
63975;SDS011;50167;47.958;21.780;2023-10-13T11:46:13;14.90;;;6.00;;
63975;SDS011;50167;47.958;21.780;2023-10-13T11:48:41;24.87;;;6.55;;
63975;SDS011;50167;47.958;21.780;2023-10-13T11:51:10;16.45;;;7.35;;
63975;SDS011;50167;47.958;21.780;2023-10-13T11:53:45;17.02;;;6.53;;
63975;SDS011;50167;47.958;21.780;2023-10-13T11:56:16;16.85;;;7.37;;
63975;SDS011;50167;47.958;21.780;2023-10-13T11:58:46;17.32;;;6.55;;
63975;SDS011;50167;47.958;21.780;2023-10-13T12:01:13;26.15;;;6.45;;
63975;SDS011;50167;47.958;21.780;2023-10-13T12:03:43;21.02;;;5.78;;
63975;SDS011;50167;47.958;21.780;2023-10-13T12:06:31;17.70;;;6.05;;
63975;SDS011;50167;47.958;21.780;2023-10-13T12:09:05;11.33;;;6.10;;
63975;SDS011;50167;47.958;21.780;2023-10-13T12:11:39;14.95;;;5.47;;
63975;SDS011;50167;47.958;21.780;2023-10-13T12:18:29;15.23;;;6.05;;
63975;SDS011;50167;47.958;21.780;2023-10-13T12:20:55;12.25;;;5.72;;
63975;SDS011;50167;47.958;21.780;2023-10-13T12:23:22;18.17;;;5.80;;
63975;SDS011;50167;47.958;21.780;2023-10-13T12:25:50;22.40;;;6.83;;
63975;SDS011;50167;47.958;21.780;2023-10-13T12:28:24;19.73;;;6.20;;
63975;SDS011;50167;47.958;21.780;2023-10-13T12:30:54;18.45;;;6.00;;
63975;SDS011;50167;47.958;21.780;2023-10-13T12:33:24;15.72;;;6.37;;
63975;SDS011;50167;47.958;21.780;2023-10-13T12:38:37;20.75;;;7.20;;
63975;SDS011;50167;47.958;21.780;2023-10-13T12:41:19;21.17;;;6.17;;
63975;SDS011;50167;47.958;21.780;2023-10-13T12:44:04;25.85;;;6.72;;
63975;SDS011;50167;47.958;21.780;2023-10-13T12:46:50;23.83;;;8.53;;
63975;SDS011;50167;47.958;21.780;2023-10-13T12:49:36;18.52;;;6.45;;
63975;SDS011;50167;47.958;21.780;2023-10-13T12:52:06;21.85;;;6.10;;
63975;SDS011;50167;47.958;21.780;2023-10-13T12:54:42;22.98;;;6.62;;
63975;SDS011;50167;47.958;21.780;2023-10-13T12:57:22;18.17;;;6.37;;
63975;SDS011;50167;47.958;21.780;2023-10-13T12:59:50;17.12;;;5.90;;
63975;SDS011;50167;47.958;21.780;2023-10-13T13:02:19;22.13;;;6.40;;
63975;SDS011;50167;47.958;21.780;2023-10-13T13:04:47;28.57;;;6.92;;
63975;SDS011;50167;47.958;21.780;2023-10-13T13:07:17;21.33;;;7.17;;
63975;SDS011;50167;47.958;21.780;2023-10-13T13:09:43;18.37;;;6.25;;
63975;SDS011;50167;47.958;21.780;2023-10-13T13:12:09;14.33;;;6.45;;
63975;SDS011;50167;47.958;21.780;2023-10-13T13:14:37;14.55;;;5.87;;
63975;SDS011;50167;47.958;21.780;2023-10-13T13:17:06;17.25;;;7.55;;
63975;SDS011;50167;47.958;21.780;2023-10-13T13:19:33;19.73;;;6.67;;
63975;SDS011;50167;47.958;21.780;2023-10-13T13:22:07;16.67;;;5.90;;
63975;SDS011;50167;47.958;21.780;2023-10-13T13:24:38;17.67;;;5.87;;
63975;SDS011;50167;47.958;21.780;2023-10-13T13:27:09;25.25;;;8.13;;
63975;SDS011;50167;47.958;21.780;2023-10-13T13:29:45;16.20;;;6.60;;
63975;SDS011;50167;47.958;21.780;2023-10-13T13:32:11;19.30;;;5.97;;
63975;SDS011;50167;47.958;21.780;2023-10-13T13:34:51;21.42;;;6.20;;
63975;SDS011;50167;47.958;21.780;2023-10-13T13:37:20;24.32;;;7.55;;
63975;SDS011;50167;47.958;21.780;2023-10-13T13:39:47;20.08;;;5.70;;
63975;SDS011;50167;47.958;21.780;2023-10-13T13:42:13;23.10;;;6.17;;
63975;SDS011;50167;47.958;21.780;2023-10-13T13:44:46;31.60;;;14.68;;
63975;SDS011;50167;47.958;21.780;2023-10-13T13:47:13;22.48;;;11.30;;
63975;SDS011;50167;47.958;21.780;2023-10-13T13:49:39;48.30;;;10.45;;
63975;SDS011;50167;47.958;21.780;2023-10-13T13:52:08;19.43;;;7.33;;
63975;SDS011;50167;47.958;21.780;2023-10-13T13:54:35;27.80;;;7.35;;
63975;SDS011;50167;47.958;21.780;2023-10-13T13:57:01;22.35;;;6.85;;
63975;SDS011;50167;47.958;21.780;2023-10-13T13:59:28;28.52;;;8.25;;
63975;SDS011;50167;47.958;21.780;2023-10-13T14:01:56;13.85;;;6.75;;
63975;SDS011;50167;47.958;21.780;2023-10-13T14:04:24;15.80;;;7.12;;
63975;SDS011;50167;47.958;21.780;2023-10-13T14:06:50;23.05;;;8.98;;
63975;SDS011;50167;47.958;21.780;2023-10-13T14:09:16;27.55;;;8.38;;
63975;SDS011;50167;47.958;21.780;2023-10-13T14:11:44;27.42;;;8.05;;
63975;SDS011;50167;47.958;21.780;2023-10-13T14:14:29;20.43;;;8.48;;
63975;SDS011;50167;47.958;21.780;2023-10-13T14:16:57;21.12;;;6.30;;
63975;SDS011;50167;47.958;21.780;2023-10-13T14:19:31;24.25;;;7.85;;
63975;SDS011;50167;47.958;21.780;2023-10-13T14:21:58;19.00;;;7.87;;
63975;SDS011;50167;47.958;21.780;2023-10-13T14:24:27;20.48;;;6.78;;
63975;SDS011;50167;47.958;21.780;2023-10-13T14:26:57;21.60;;;6.65;;
63975;SDS011;50167;47.958;21.780;2023-10-13T14:29:26;16.32;;;7.30;;
63975;SDS011;50167;47.958;21.780;2023-10-13T14:31:55;25.47;;;7.93;;
63975;SDS011;50167;47.958;21.780;2023-10-13T14:34:22;15.28;;;6.67;;
63975;SDS011;50167;47.958;21.780;2023-10-13T14:36:48;19.23;;;5.95;;
63975;SDS011;50167;47.958;21.780;2023-10-13T14:39:14;28.67;;;8.53;;
63975;SDS011;50167;47.958;21.780;2023-10-13T14:41:40;19.23;;;6.55;;
63975;SDS011;50167;47.958;21.780;2023-10-13T14:44:07;13.53;;;6.50;;
63975;SDS011;50167;47.958;21.780;2023-10-13T14:46:34;23.98;;;7.05;;
63975;SDS011;50167;47.958;21.780;2023-10-13T14:49:04;24.72;;;7.17;;
63975;SDS011;50167;47.958;21.780;2023-10-13T14:51:31;19.23;;;6.45;;
63975;SDS011;50167;47.958;21.780;2023-10-13T14:53:58;15.35;;;6.78;;
63975;SDS011;50167;47.958;21.780;2023-10-13T14:56:25;20.65;;;7.12;;
63975;SDS011;50167;47.958;21.780;2023-10-13T14:58:53;18.05;;;6.70;;
63975;SDS011;50167;47.958;21.780;2023-10-13T15:01:21;19.37;;;5.67;;
63975;SDS011;50167;47.958;21.780;2023-10-13T15:03:51;22.50;;;7.20;;
63975;SDS011;50167;47.958;21.780;2023-10-13T15:08:53;34.92;;;7.60;;
63975;SDS011;50167;47.958;21.780;2023-10-13T15:11:20;31.35;;;14.95;;
63975;SDS011;50167;47.958;21.780;2023-10-13T15:13:49;17.45;;;8.03;;
63975;SDS011;50167;47.958;21.780;2023-10-13T15:16:17;26.65;;;9.05;;
63975;SDS011;50167;47.958;21.780;2023-10-13T15:18:47;29.48;;;10.85;;
63975;SDS011;50167;47.958;21.780;2023-10-13T15:21:23;28.32;;;11.97;;
63975;SDS011;50167;47.958;21.780;2023-10-13T15:23:50;37.13;;;15.13;;
63975;SDS011;50167;47.958;21.780;2023-10-13T15:26:17;58.58;;;25.45;;
63975;SDS011;50167;47.958;21.780;2023-10-13T15:28:51;58.17;;;29.32;;
63975;SDS011;50167;47.958;21.780;2023-10-13T15:31:17;64.35;;;36.15;;
63975;SDS011;50167;47.958;21.780;2023-10-13T15:33:49;65.37;;;36.42;;
63975;SDS011;50167;47.958;21.780;2023-10-13T15:36:24;60.12;;;32.98;;
63975;SDS011;50167;47.958;21.780;2023-10-13T15:38:50;64.05;;;30.55;;
63975;SDS011;50167;47.958;21.780;2023-10-13T15:41:25;64.65;;;24.37;;